sensor_id;sensor_type;location;lat;lon;timestamp;P1;durP1;ratioP1;P2;durP2;ratioP2
32613;SDS011;19031;51.400;6.770;2023-08-07T00:01:46;9.65;;;2.45;;
32613;SDS011;19031;51.400;6.770;2023-08-07T00:04:11;10.80;;;2.10;;
32613;SDS011;19031;51.400;6.770;2023-08-07T00:06:37;12.60;;;1.80;;
32613;SDS011;19031;51.400;6.770;2023-08-07T00:09:02;7.78;;;1.95;;
32613;SDS011;19031;51.400;6.770;2023-08-07T00:11:28;11.05;;;2.58;;
32613;SDS011;19031;51.400;6.770;2023-08-07T00:13:54;12.98;;;2.15;;
32613;SDS011;19031;51.400;6.770;2023-08-07T00:16:20;13.10;;;1.80;;
32613;SDS011;19031;51.400;6.770;2023-08-07T00:18:46;11.35;;;1.80;;
32613;SDS011;19031;51.400;6.770;2023-08-07T00:21:11;13.30;;;1.83;;
32613;SDS011;19031;51.400;6.770;2023-08-07T00:23:37;11.25;;;2.28;;
32613;SDS011;19031;51.400;6.770;2023-08-07T00:26:02;10.35;;;1.83;;
32613;SDS011;19031;51.400;6.770;2023-08-07T00:28:28;9.88;;;1.65;;
32613;SDS011;19031;51.400;6.770;2023-08-07T00:30:54;8.52;;;1.92;;
32613;SDS011;19031;51.400;6.770;2023-08-07T00:33:20;9.20;;;1.83;;
32613;SDS011;19031;51.400;6.770;2023-08-07T00:35:46;12.55;;;2.55;;
32613;SDS011;19031;51.400;6.770;2023-08-07T00:38:11;6.53;;;1.08;;
32613;SDS011;19031;51.400;6.770;2023-08-07T00:40:40;10.10;;;1.65;;
32613;SDS011;19031;51.400;6.770;2023-08-07T00:43:06;6.93;;;1.75;;
32613;SDS011;19031;51.400;6.770;2023-08-07T00:45:34;8.95;;;1.70;;
32613;SDS011;19031;51.400;6.770;2023-08-07T00:48:03;9.23;;;1.25;;
32613;SDS011;19031;51.400;6.770;2023-08-07T00:50:29;7.97;;;1.80;;
32613;SDS011;19031;51.400;6.770;2023-08-07T00:52:55;11.43;;;1.90;;
32613;SDS011;19031;51.400;6.770;2023-08-07T00:55:21;8.45;;;2.47;;
32613;SDS011;19031;51.400;6.770;2023-08-07T00:57:46;8.52;;;1.73;;
32613;SDS011;19031;51.400;6.770;2023-08-07T01:00:13;6.90;;;1.45;;
32613;SDS011;19031;51.400;6.770;2023-08-07T01:02:39;9.55;;;1.48;;
32613;SDS011;19031;51.400;6.770;2023-08-07T01:05:05;8.00;;;1.27;;
32613;SDS011;19031;51.400;6.770;2023-08-07T01:07:31;15.32;;;2.05;;
32613;SDS011;19031;51.400;6.770;2023-08-07T01:09:56;11.07;;;1.45;;
32613;SDS011;19031;51.400;6.770;2023-08-07T01:12:30;7.43;;;1.50;;
32613;SDS011;19031;51.400;6.770;2023-08-07T01:15:10;10.30;;;1.65;;
32613;SDS011;19031;51.400;6.770;2023-08-07T01:17:39;10.73;;;1.90;;
32613;SDS011;19031;51.400;6.770;2023-08-07T01:20:06;10.48;;;1.80;;
32613;SDS011;19031;51.400;6.770;2023-08-07T01:22:33;11.25;;;1.77;;
32613;SDS011;19031;51.400;6.770;2023-08-07T01:24:58;7.22;;;1.73;;
32613;SDS011;19031;51.400;6.770;2023-08-07T01:27:30;9.55;;;2.35;;
32613;SDS011;19031;51.400;6.770;2023-08-07T01:30:20;9.85;;;1.88;;
32613;SDS011;19031;51.400;6.770;2023-08-07T01:35:23;8.23;;;2.25;;
32613;SDS011;19031;51.400;6.770;2023-08-07T01:37:50;12.50;;;2.25;;
32613;SDS011;19031;51.400;6.770;2023-08-07T01:40:18;9.80;;;2.58;;
32613;SDS011;19031;51.400;6.770;2023-08-07T01:42:46;15.27;;;2.00;;
32613;SDS011;19031;51.400;6.770;2023-08-07T01:45:12;6.82;;;1.90;;
32613;SDS011;19031;51.400;6.770;2023-08-07T01:47:59;5.90;;;1.77;;
32613;SDS011;19031;51.400;6.770;2023-08-07T01:50:25;8.02;;;1.52;;
32613;SDS011;19031;51.400;6.770;2023-08-07T01:52:51;7.68;;;2.08;;
32613;SDS011;19031;51.400;6.770;2023-08-07T01:55:18;7.72;;;1.73;;
32613;SDS011;19031;51.400;6.770;2023-08-07T01:57:45;5.65;;;2.25;;
32613;SDS011;19031;51.400;6.770;2023-08-07T02:00:11;9.45;;;2.47;;
32613;SDS011;19031;51.400;6.770;2023-08-07T02:02:37;7.47;;;1.73;;
32613;SDS011;19031;51.400;6.770;2023-08-07T02:05:10;8.33;;;2.30;;
32613;SDS011;19031;51.400;6.770;2023-08-07T02:07:36;12.07;;;2.50;;
32613;SDS011;19031;51.400;6.770;2023-08-07T02:10:01;8.05;;;1.63;;
32613;SDS011;19031;51.400;6.770;2023-08-07T02:12:27;6.53;;;2.03;;
32613;SDS011;19031;51.400;6.770;2023-08-07T02:14:54;6.65;;;1.80;;
32613;SDS011;19031;51.400;6.770;2023-08-07T02:17:20;9.60;;;2.28;;
32613;SDS011;19031;51.400;6.770;2023-08-07T02:19:47;7.85;;;2.10;;
32613;SDS011;19031;51.400;6.770;2023-08-07T02:22:15;5.80;;;2.03;;
32613;SDS011;19031;51.400;6.770;2023-08-07T02:24:41;10.90;;;1.70;;
32613;SDS011;19031;51.400;6.770;2023-08-07T02:27:07;9.38;;;1.85;;
32613;SDS011;19031;51.400;6.770;2023-08-07T02:29:32;15.65;;;2.60;;
32613;SDS011;19031;51.400;6.770;2023-08-07T02:31:59;7.57;;;2.15;;
32613;SDS011;19031;51.400;6.770;2023-08-07T02:34:27;10.68;;;2.67;;
32613;SDS011;19031;51.400;6.770;2023-08-07T02:36:56;8.05;;;2.70;;
32613;SDS011;19031;51.400;6.770;2023-08-07T02:39:22;13.25;;;2.55;;
32613;SDS011;19031;51.400;6.770;2023-08-07T02:41:49;11.35;;;2.80;;
32613;SDS011;19031;51.400;6.770;2023-08-07T02:44:18;14.23;;;2.97;;
32613;SDS011;19031;51.400;6.770;2023-08-07T02:46:45;10.35;;;2.50;;
32613;SDS011;19031;51.400;6.770;2023-08-07T02:49:10;14.00;;;2.75;;
32613;SDS011;19031;51.400;6.770;2023-08-07T02:51:36;13.75;;;2.25;;
32613;SDS011;19031;51.400;6.770;2023-08-07T02:54:01;13.80;;;2.13;;
32613;SDS011;19031;51.400;6.770;2023-08-07T02:56:27;7.00;;;2.13;;
32613;SDS011;19031;51.400;6.770;2023-08-07T02:58:55;12.95;;;2.03;;
32613;SDS011;19031;51.400;6.770;2023-08-07T03:01:26;10.88;;;2.22;;
32613;SDS011;19031;51.400;6.770;2023-08-07T03:03:52;12.07;;;2.50;;
32613;SDS011;19031;51.400;6.770;2023-08-07T03:06:18;14.68;;;2.47;;
32613;SDS011;19031;51.400;6.770;2023-08-07T03:08:46;8.65;;;2.25;;
32613;SDS011;19031;51.400;6.770;2023-08-07T03:11:11;9.02;;;2.25;;
32613;SDS011;19031;51.400;6.770;2023-08-07T03:13:37;10.63;;;2.20;;
32613;SDS011;19031;51.400;6.770;2023-08-07T03:16:04;16.15;;;2.75;;
32613;SDS011;19031;51.400;6.770;2023-08-07T03:18:31;10.25;;;2.33;;
32613;SDS011;19031;51.400;6.770;2023-08-07T03:20:57;14.38;;;2.45;;
32613;SDS011;19031;51.400;6.770;2023-08-07T03:23:26;15.23;;;2.35;;
32613;SDS011;19031;51.400;6.770;2023-08-07T03:26:08;11.50;;;2.60;;
32613;SDS011;19031;51.400;6.770;2023-08-07T03:28:35;14.48;;;2.13;;
32613;SDS011;19031;51.400;6.770;2023-08-07T03:31:01;11.73;;;2.30;;
32613;SDS011;19031;51.400;6.770;2023-08-07T03:33:27;12.48;;;2.22;;
32613;SDS011;19031;51.400;6.770;2023-08-07T03:35:52;11.98;;;3.05;;
32613;SDS011;19031;51.400;6.770;2023-08-07T03:38:21;17.95;;;2.53;;
32613;SDS011;19031;51.400;6.770;2023-08-07T03:40:47;11.50;;;2.75;;
32613;SDS011;19031;51.400;6.770;2023-08-07T03:45:56;13.93;;;3.58;;
32613;SDS011;19031;51.400;6.770;2023-08-07T03:48:27;12.13;;;3.05;;
32613;SDS011;19031;51.400;6.770;2023-08-07T03:51:05;13.48;;;2.30;;
32613;SDS011;19031;51.400;6.770;2023-08-07T03:53:33;12.35;;;2.78;;
32613;SDS011;19031;51.400;6.770;2023-08-07T03:56:01;9.90;;;2.50;;
32613;SDS011;19031;51.400;6.770;2023-08-07T03:58:27;16.23;;;2.72;;
32613;SDS011;19031;51.400;6.770;2023-08-07T04:00:53;14.95;;;2.13;;
32613;SDS011;19031;51.400;6.770;2023-08-07T04:03:21;12.75;;;2.25;;
32613;SDS011;19031;51.400;6.770;2023-08-07T04:05:51;8.15;;;2.45;;
32613;SDS011;19031;51.400;6.770;2023-08-07T04:08:21;18.73;;;2.75;;
32613;SDS011;19031;51.400;6.770;2023-08-07T04:13:28;14.38;;;3.47;;
32613;SDS011;19031;51.400;6.770;2023-08-07T04:15:54;8.07;;;2.75;;
32613;SDS011;19031;51.400;6.770;2023-08-07T04:18:30;16.98;;;3.45;;
32613;SDS011;19031;51.400;6.770;2023-08-07T04:20:59;14.13;;;2.78;;
32613;SDS011;19031;51.400;6.770;2023-08-07T04:23:25;8.55;;;2.25;;
32613;SDS011;19031;51.400;6.770;2023-08-07T04:25:52;11.68;;;2.53;;
32613;SDS011;19031;51.400;6.770;2023-08-07T04:28:18;14.30;;;2.83;;
32613;SDS011;19031;51.400;6.770;2023-08-07T04:30:44;15.85;;;2.70;;
32613;SDS011;19031;51.400;6.770;2023-08-07T04:33:16;14.75;;;3.00;;
32613;SDS011;19031;51.400;6.770;2023-08-07T04:35:41;15.38;;;2.60;;
32613;SDS011;19031;51.400;6.770;2023-08-07T04:38:10;11.38;;;2.10;;
32613;SDS011;19031;51.400;6.770;2023-08-07T04:40:36;14.27;;;2.67;;
32613;SDS011;19031;51.400;6.770;2023-08-07T04:43:01;10.02;;;1.98;;
32613;SDS011;19031;51.400;6.770;2023-08-07T04:45:32;12.75;;;2.47;;
32613;SDS011;19031;51.400;6.770;2023-08-07T04:48:02;15.00;;;3.15;;
32613;SDS011;19031;51.400;6.770;2023-08-07T04:50:28;16.05;;;3.10;;
32613;SDS011;19031;51.400;6.770;2023-08-07T04:52:54;12.55;;;2.10;;
32613;SDS011;19031;51.400;6.770;2023-08-07T04:55:20;13.65;;;2.33;;
32613;SDS011;19031;51.400;6.770;2023-08-07T04:57:45;11.07;;;2.55;;
32613;SDS011;19031;51.400;6.770;2023-08-07T05:00:12;10.02;;;2.53;;
32613;SDS011;19031;51.400;6.770;2023-08-07T05:02:41;15.63;;;2.47;;
32613;SDS011;19031;51.400;6.770;2023-08-07T05:05:07;10.98;;;2.83;;
32613;SDS011;19031;51.400;6.770;2023-08-07T05:07:34;14.93;;;3.15;;
32613;SDS011;19031;51.400;6.770;2023-08-07T05:10:01;8.32;;;2.30;;
32613;SDS011;19031;51.400;6.770;2023-08-07T05:12:30;10.07;;;2.35;;
32613;SDS011;19031;51.400;6.770;2023-08-07T05:14:55;17.58;;;3.35;;
32613;SDS011;19031;51.400;6.770;2023-08-07T05:17:21;13.90;;;2.72;;
32613;SDS011;19031;51.400;6.770;2023-08-07T05:19:47;13.15;;;2.45;;
32613;SDS011;19031;51.400;6.770;2023-08-07T05:22:12;13.40;;;2.75;;
32613;SDS011;19031;51.400;6.770;2023-08-07T05:24:38;13.65;;;2.50;;
32613;SDS011;19031;51.400;6.770;2023-08-07T05:27:10;6.35;;;2.40;;
32613;SDS011;19031;51.400;6.770;2023-08-07T05:29:36;10.50;;;2.55;;
32613;SDS011;19031;51.400;6.770;2023-08-07T05:32:08;15.27;;;3.00;;
32613;SDS011;19031;51.400;6.770;2023-08-07T05:34:35;13.27;;;3.13;;
32613;SDS011;19031;51.400;6.770;2023-08-07T05:37:10;14.60;;;3.67;;
32613;SDS011;19031;51.400;6.770;2023-08-07T05:39:44;11.68;;;3.28;;
32613;SDS011;19031;51.400;6.770;2023-08-07T05:42:10;10.80;;;3.30;;
32613;SDS011;19031;51.400;6.770;2023-08-07T05:44:39;12.75;;;3.33;;
32613;SDS011;19031;51.400;6.770;2023-08-07T05:47:08;10.35;;;3.33;;
32613;SDS011;19031;51.400;6.770;2023-08-07T05:49:36;10.20;;;2.72;;
32613;SDS011;19031;51.400;6.770;2023-08-07T05:52:02;13.25;;;2.75;;
32613;SDS011;19031;51.400;6.770;2023-08-07T05:54:28;9.75;;;2.58;;
32613;SDS011;19031;51.400;6.770;2023-08-07T05:56:57;9.38;;;2.97;;
32613;SDS011;19031;51.400;6.770;2023-08-07T05:59:22;8.77;;;3.20;;
32613;SDS011;19031;51.400;6.770;2023-08-07T06:01:48;10.95;;;2.95;;
32613;SDS011;19031;51.400;6.770;2023-08-07T06:07:22;18.13;;;3.33;;
32613;SDS011;19031;51.400;6.770;2023-08-07T06:09:57;9.43;;;3.08;;
32613;SDS011;19031;51.400;6.770;2023-08-07T06:12:23;13.00;;;2.80;;
32613;SDS011;19031;51.400;6.770;2023-08-07T06:14:48;6.95;;;2.58;;
32613;SDS011;19031;51.400;6.770;2023-08-07T06:17:19;6.97;;;2.72;;
32613;SDS011;19031;51.400;6.770;2023-08-07T06:19:45;8.55;;;3.10;;
32613;SDS011;19031;51.400;6.770;2023-08-07T06:22:10;9.88;;;2.85;;
32613;SDS011;19031;51.400;6.770;2023-08-07T06:24:36;10.80;;;2.55;;
32613;SDS011;19031;51.400;6.770;2023-08-07T06:27:07;9.75;;;3.05;;
32613;SDS011;19031;51.400;6.770;2023-08-07T06:29:36;12.73;;;2.88;;
32613;SDS011;19031;51.400;6.770;2023-08-07T06:32:02;6.55;;;2.40;;
32613;SDS011;19031;51.400;6.770;2023-08-07T06:34:31;8.50;;;2.30;;
32613;SDS011;19031;51.400;6.770;2023-08-07T06:36:56;6.95;;;2.50;;
32613;SDS011;19031;51.400;6.770;2023-08-07T06:39:22;11.45;;;2.40;;
32613;SDS011;19031;51.400;6.770;2023-08-07T06:41:50;5.68;;;1.98;;
32613;SDS011;19031;51.400;6.770;2023-08-07T06:44:16;6.75;;;2.38;;
32613;SDS011;19031;51.400;6.770;2023-08-07T06:46:41;7.43;;;3.53;;
32613;SDS011;19031;51.400;6.770;2023-08-07T06:49:07;8.25;;;2.80;;
32613;SDS011;19031;51.400;6.770;2023-08-07T06:51:32;8.70;;;3.00;;
32613;SDS011;19031;51.400;6.770;2023-08-07T06:53:58;11.88;;;2.90;;
32613;SDS011;19031;51.400;6.770;2023-08-07T06:56:26;10.90;;;2.40;;
32613;SDS011;19031;51.400;6.770;2023-08-07T06:58:52;9.90;;;3.22;;
32613;SDS011;19031;51.400;6.770;2023-08-07T07:01:18;12.88;;;3.17;;
32613;SDS011;19031;51.400;6.770;2023-08-07T07:03:46;12.68;;;3.55;;
32613;SDS011;19031;51.400;6.770;2023-08-07T07:06:17;16.00;;;2.58;;
32613;SDS011;19031;51.400;6.770;2023-08-07T07:08:42;10.90;;;3.15;;
32613;SDS011;19031;51.400;6.770;2023-08-07T07:11:08;9.85;;;3.40;;
32613;SDS011;19031;51.400;6.770;2023-08-07T07:13:34;8.90;;;2.80;;
32613;SDS011;19031;51.400;6.770;2023-08-07T07:16:02;8.65;;;2.78;;
32613;SDS011;19031;51.400;6.770;2023-08-07T07:18:28;9.38;;;3.22;;
32613;SDS011;19031;51.400;6.770;2023-08-07T07:20:57;12.13;;;2.20;;
32613;SDS011;19031;51.400;6.770;2023-08-07T07:23:23;15.52;;;2.88;;
32613;SDS011;19031;51.400;6.770;2023-08-07T07:25:49;12.73;;;3.10;;
32613;SDS011;19031;51.400;6.770;2023-08-07T07:28:15;15.25;;;2.42;;
32613;SDS011;19031;51.400;6.770;2023-08-07T07:30:40;8.15;;;2.63;;
32613;SDS011;19031;51.400;6.770;2023-08-07T07:33:06;7.55;;;2.58;;
32613;SDS011;19031;51.400;6.770;2023-08-07T07:35:31;12.15;;;3.08;;
32613;SDS011;19031;51.400;6.770;2023-08-07T07:37:58;13.00;;;2.70;;
32613;SDS011;19031;51.400;6.770;2023-08-07T07:40:23;7.72;;;2.45;;
32613;SDS011;19031;51.400;6.770;2023-08-07T07:42:49;14.77;;;3.22;;
32613;SDS011;19031;51.400;6.770;2023-08-07T07:45:17;6.88;;;2.13;;
32613;SDS011;19031;51.400;6.770;2023-08-07T07:47:42;9.80;;;2.72;;
32613;SDS011;19031;51.400;6.770;2023-08-07T07:50:08;10.75;;;3.03;;
32613;SDS011;19031;51.400;6.770;2023-08-07T07:52:38;7.53;;;2.47;;
32613;SDS011;19031;51.400;6.770;2023-08-07T07:55:04;7.82;;;3.00;;
32613;SDS011;19031;51.400;6.770;2023-08-07T07:57:37;9.27;;;2.35;;
32613;SDS011;19031;51.400;6.770;2023-08-07T08:00:03;7.57;;;3.47;;
32613;SDS011;19031;51.400;6.770;2023-08-07T08:02:35;7.78;;;2.50;;
32613;SDS011;19031;51.400;6.770;2023-08-07T08:05:08;7.15;;;2.35;;
32613;SDS011;19031;51.400;6.770;2023-08-07T08:07:38;7.40;;;2.58;;
32613;SDS011;19031;51.400;6.770;2023-08-07T08:10:07;7.70;;;2.22;;
32613;SDS011;19031;51.400;6.770;2023-08-07T08:12:33;9.60;;;2.40;;
32613;SDS011;19031;51.400;6.770;2023-08-07T08:15:03;12.98;;;2.75;;
32613;SDS011;19031;51.400;6.770;2023-08-07T08:17:29;6.25;;;2.17;;
32613;SDS011;19031;51.400;6.770;2023-08-07T08:19:54;10.25;;;1.85;;
32613;SDS011;19031;51.400;6.770;2023-08-07T08:22:20;7.03;;;1.75;;
32613;SDS011;19031;51.400;6.770;2023-08-07T08:24:45;7.28;;;1.73;;
32613;SDS011;19031;51.400;6.770;2023-08-07T08:27:12;11.48;;;2.17;;
32613;SDS011;19031;51.400;6.770;2023-08-07T08:29:38;6.68;;;1.98;;
32613;SDS011;19031;51.400;6.770;2023-08-07T08:32:06;6.05;;;2.05;;
32613;SDS011;19031;51.400;6.770;2023-08-07T08:34:32;6.57;;;2.00;;
32613;SDS011;19031;51.400;6.770;2023-08-07T08:36:58;7.78;;;2.05;;
32613;SDS011;19031;51.400;6.770;2023-08-07T08:39:23;6.47;;;2.15;;
32613;SDS011;19031;51.400;6.770;2023-08-07T08:41:52;8.93;;;2.38;;
32613;SDS011;19031;51.400;6.770;2023-08-07T08:44:19;8.82;;;2.17;;
32613;SDS011;19031;51.400;6.770;2023-08-07T08:46:47;6.95;;;1.63;;
32613;SDS011;19031;51.400;6.770;2023-08-07T08:49:21;6.57;;;2.13;;
32613;SDS011;19031;51.400;6.770;2023-08-07T08:51:57;7.88;;;1.67;;
32613;SDS011;19031;51.400;6.770;2023-08-07T08:54:23;9.20;;;1.92;;
32613;SDS011;19031;51.400;6.770;2023-08-07T08:56:50;8.35;;;1.92;;
32613;SDS011;19031;51.400;6.770;2023-08-07T08:59:17;7.85;;;1.80;;
32613;SDS011;19031;51.400;6.770;2023-08-07T09:01:46;5.13;;;2.05;;
32613;SDS011;19031;51.400;6.770;2023-08-07T09:04:15;12.55;;;2.65;;
32613;SDS011;19031;51.400;6.770;2023-08-07T09:06:42;11.65;;;2.40;;
32613;SDS011;19031;51.400;6.770;2023-08-07T09:09:08;7.25;;;2.10;;
32613;SDS011;19031;51.400;6.770;2023-08-07T09:11:35;6.57;;;2.00;;
32613;SDS011;19031;51.400;6.770;2023-08-07T09:14:01;8.55;;;2.05;;
32613;SDS011;19031;51.400;6.770;2023-08-07T09:16:31;5.38;;;1.67;;
32613;SDS011;19031;51.400;6.770;2023-08-07T09:19:03;9.07;;;2.22;;
32613;SDS011;19031;51.400;6.770;2023-08-07T09:21:55;9.95;;;2.58;;
32613;SDS011;19031;51.400;6.770;2023-08-07T09:24:24;9.18;;;3.08;;
32613;SDS011;19031;51.400;6.770;2023-08-07T09:26:54;16.38;;;2.85;;
32613;SDS011;19031;51.400;6.770;2023-08-07T09:29:20;12.80;;;2.88;;
32613;SDS011;19031;51.400;6.770;2023-08-07T09:31:47;16.65;;;2.60;;
32613;SDS011;19031;51.400;6.770;2023-08-07T09:34:12;7.97;;;2.00;;
32613;SDS011;19031;51.400;6.770;2023-08-07T09:36:41;10.20;;;2.58;;
32613;SDS011;19031;51.400;6.770;2023-08-07T09:39:07;10.32;;;2.33;;
32613;SDS011;19031;51.400;6.770;2023-08-07T09:41:33;9.73;;;2.65;;
32613;SDS011;19031;51.400;6.770;2023-08-07T09:44:00;5.72;;;2.10;;
32613;SDS011;19031;51.400;6.770;2023-08-07T09:46:42;6.35;;;2.00;;
32613;SDS011;19031;51.400;6.770;2023-08-07T09:49:08;10.50;;;3.05;;
32613;SDS011;19031;51.400;6.770;2023-08-07T09:51:43;9.30;;;1.80;;
32613;SDS011;19031;51.400;6.770;2023-08-07T09:54:10;7.75;;;2.33;;
32613;SDS011;19031;51.400;6.770;2023-08-07T09:56:36;6.80;;;2.42;;
32613;SDS011;19031;51.400;6.770;2023-08-07T09:59:03;8.35;;;2.17;;
32613;SDS011;19031;51.400;6.770;2023-08-07T10:01:29;9.25;;;2.20;;
32613;SDS011;19031;51.400;6.770;2023-08-07T10:03:55;6.35;;;2.20;;
32613;SDS011;19031;51.400;6.770;2023-08-07T10:06:21;12.20;;;2.55;;
32613;SDS011;19031;51.400;6.770;2023-08-07T10:08:47;8.18;;;1.85;;
32613;SDS011;19031;51.400;6.770;2023-08-07T10:11:13;6.40;;;2.20;;
32613;SDS011;19031;51.400;6.770;2023-08-07T10:13:40;5.30;;;2.20;;
32613;SDS011;19031;51.400;6.770;2023-08-07T10:16:06;8.60;;;2.22;;
32613;SDS011;19031;51.400;6.770;2023-08-07T10:18:32;5.40;;;1.70;;
32613;SDS011;19031;51.400;6.770;2023-08-07T10:21:00;10.27;;;2.33;;
32613;SDS011;19031;51.400;6.770;2023-08-07T10:23:27;6.88;;;2.10;;
32613;SDS011;19031;51.400;6.770;2023-08-07T10:25:53;9.20;;;2.00;;
32613;SDS011;19031;51.400;6.770;2023-08-07T10:28:20;9.13;;;2.13;;
32613;SDS011;19031;51.400;6.770;2023-08-07T10:30:53;6.75;;;1.77;;
32613;SDS011;19031;51.400;6.770;2023-08-07T10:33:19;7.97;;;1.80;;
32613;SDS011;19031;51.400;6.770;2023-08-07T10:35:46;11.52;;;2.15;;
32613;SDS011;19031;51.400;6.770;2023-08-07T10:38:13;8.45;;;1.75;;
32613;SDS011;19031;51.400;6.770;2023-08-07T10:40:58;5.65;;;1.50;;
32613;SDS011;19031;51.400;6.770;2023-08-07T10:46:10;6.68;;;1.73;;
32613;SDS011;19031;51.400;6.770;2023-08-07T10:51:16;8.60;;;1.77;;
32613;SDS011;19031;51.400;6.770;2023-08-07T10:56:31;9.30;;;1.85;;
32613;SDS011;19031;51.400;6.770;2023-08-07T10:58:57;9.43;;;2.10;;
32613;SDS011;19031;51.400;6.770;2023-08-07T11:01:43;7.07;;;2.28;;
32613;SDS011;19031;51.400;6.770;2023-08-07T11:04:09;9.63;;;2.40;;
32613;SDS011;19031;51.400;6.770;2023-08-07T11:06:37;10.68;;;3.08;;
32613;SDS011;19031;51.400;6.770;2023-08-07T11:09:04;8.27;;;2.15;;
32613;SDS011;19031;51.400;6.770;2023-08-07T11:11:42;9.18;;;2.53;;
32613;SDS011;19031;51.400;6.770;2023-08-07T11:14:09;7.18;;;1.70;;
32613;SDS011;19031;51.400;6.770;2023-08-07T11:16:37;7.70;;;1.90;;
32613;SDS011;19031;51.400;6.770;2023-08-07T11:19:04;6.82;;;1.65;;
32613;SDS011;19031;51.400;6.770;2023-08-07T11:21:30;4.82;;;1.50;;
32613;SDS011;19031;51.400;6.770;2023-08-07T11:23:57;8.40;;;1.58;;
32613;SDS011;19031;51.400;6.770;2023-08-07T11:26:23;9.13;;;1.55;;
32613;SDS011;19031;51.400;6.770;2023-08-07T11:28:51;9.80;;;1.90;;
32613;SDS011;19031;51.400;6.770;2023-08-07T11:31:17;6.20;;;1.52;;
32613;SDS011;19031;51.400;6.770;2023-08-07T11:33:43;6.63;;;1.17;;
32613;SDS011;19031;51.400;6.770;2023-08-07T11:36:13;4.30;;;1.60;;
32613;SDS011;19031;51.400;6.770;2023-08-07T11:38:40;6.72;;;1.52;;
32613;SDS011;19031;51.400;6.770;2023-08-07T11:41:10;4.95;;;1.20;;
32613;SDS011;19031;51.400;6.770;2023-08-07T11:43:37;7.05;;;1.60;;
32613;SDS011;19031;51.400;6.770;2023-08-07T11:46:04;6.00;;;1.45;;
32613;SDS011;19031;51.400;6.770;2023-08-07T11:48:32;11.07;;;2.13;;
32613;SDS011;19031;51.400;6.770;2023-08-07T11:51:00;5.20;;;1.38;;
32613;SDS011;19031;51.400;6.770;2023-08-07T11:53:27;9.18;;;1.90;;
32613;SDS011;19031;51.400;6.770;2023-08-07T11:56:04;4.53;;;1.52;;
32613;SDS011;19031;51.400;6.770;2023-08-07T12:01:11;10.90;;;1.45;;
32613;SDS011;19031;51.400;6.770;2023-08-07T12:03:38;6.32;;;1.65;;
32613;SDS011;19031;51.400;6.770;2023-08-07T12:06:06;9.80;;;1.70;;
32613;SDS011;19031;51.400;6.770;2023-08-07T12:08:37;8.45;;;1.60;;
32613;SDS011;19031;51.400;6.770;2023-08-07T12:11:05;5.10;;;1.65;;
32613;SDS011;19031;51.400;6.770;2023-08-07T12:13:33;5.40;;;1.45;;
32613;SDS011;19031;51.400;6.770;2023-08-07T12:16:05;6.55;;;1.55;;
32613;SDS011;19031;51.400;6.770;2023-08-07T12:18:32;7.80;;;1.73;;
32613;SDS011;19031;51.400;6.770;2023-08-07T12:20:59;7.28;;;1.30;;
32613;SDS011;19031;51.400;6.770;2023-08-07T12:23:25;7.57;;;1.33;;
32613;SDS011;19031;51.400;6.770;2023-08-07T12:25:51;5.15;;;1.40;;
32613;SDS011;19031;51.400;6.770;2023-08-07T12:28:17;5.07;;;1.45;;
32613;SDS011;19031;51.400;6.770;2023-08-07T12:30:44;9.40;;;1.40;;
32613;SDS011;19031;51.400;6.770;2023-08-07T12:33:11;6.43;;;1.30;;
32613;SDS011;19031;51.400;6.770;2023-08-07T12:35:37;7.45;;;1.85;;
32613;SDS011;19031;51.400;6.770;2023-08-07T12:38:02;4.10;;;1.02;;
32613;SDS011;19031;51.400;6.770;2023-08-07T12:40:28;9.48;;;1.52;;
32613;SDS011;19031;51.400;6.770;2023-08-07T12:43:00;5.30;;;1.45;;
32613;SDS011;19031;51.400;6.770;2023-08-07T12:45:26;6.57;;;1.45;;
32613;SDS011;19031;51.400;6.770;2023-08-07T12:47:51;3.58;;;1.20;;
32613;SDS011;19031;51.400;6.770;2023-08-07T12:50:17;5.35;;;1.20;;
32613;SDS011;19031;51.400;6.770;2023-08-07T12:52:43;6.47;;;1.30;;
32613;SDS011;19031;51.400;6.770;2023-08-07T12:55:08;4.35;;;1.02;;
32613;SDS011;19031;51.400;6.770;2023-08-07T12:57:35;7.95;;;1.63;;
32613;SDS011;19031;51.400;6.770;2023-08-07T13:00:00;4.68;;;1.15;;
32613;SDS011;19031;51.400;6.770;2023-08-07T13:02:26;4.85;;;1.33;;
32613;SDS011;19031;51.400;6.770;2023-08-07T13:04:51;5.18;;;1.20;;
32613;SDS011;19031;51.400;6.770;2023-08-07T13:07:18;5.00;;;1.33;;
32613;SDS011;19031;51.400;6.770;2023-08-07T13:09:43;4.25;;;1.42;;
32613;SDS011;19031;51.400;6.770;2023-08-07T13:12:09;6.03;;;1.20;;
32613;SDS011;19031;51.400;6.770;2023-08-07T13:14:35;6.60;;;1.60;;
32613;SDS011;19031;51.400;6.770;2023-08-07T13:17:00;6.78;;;1.40;;
32613;SDS011;19031;51.400;6.770;2023-08-07T13:19:26;4.13;;;1.17;;
32613;SDS011;19031;51.400;6.770;2023-08-07T13:21:52;5.18;;;1.25;;
32613;SDS011;19031;51.400;6.770;2023-08-07T13:24:17;5.22;;;1.25;;
32613;SDS011;19031;51.400;6.770;2023-08-07T13:26:43;3.65;;;1.02;;
32613;SDS011;19031;51.400;6.770;2023-08-07T13:29:12;6.13;;;1.25;;
32613;SDS011;19031;51.400;6.770;2023-08-07T13:31:37;4.78;;;1.02;;
32613;SDS011;19031;51.400;6.770;2023-08-07T13:34:03;2.47;;;1.10;;
32613;SDS011;19031;51.400;6.770;2023-08-07T13:36:35;4.93;;;1.20;;
32613;SDS011;19031;51.400;6.770;2023-08-07T13:39:02;2.90;;;1.10;;
32613;SDS011;19031;51.400;6.770;2023-08-07T13:41:32;8.00;;;1.20;;
32613;SDS011;19031;51.400;6.770;2023-08-07T13:43:58;4.65;;;1.10;;
32613;SDS011;19031;51.400;6.770;2023-08-07T13:46:24;4.53;;;1.17;;
32613;SDS011;19031;51.400;6.770;2023-08-07T13:48:50;4.22;;;1.25;;
32613;SDS011;19031;51.400;6.770;2023-08-07T13:51:16;5.72;;;1.02;;
32613;SDS011;19031;51.400;6.770;2023-08-07T13:53:42;4.82;;;1.30;;
32613;SDS011;19031;51.400;6.770;2023-08-07T13:56:08;4.57;;;1.38;;
32613;SDS011;19031;51.400;6.770;2023-08-07T13:58:36;5.13;;;1.15;;
32613;SDS011;19031;51.400;6.770;2023-08-07T14:01:01;3.47;;;1.10;;
32613;SDS011;19031;51.400;6.770;2023-08-07T14:03:29;4.57;;;1.23;;
32613;SDS011;19031;51.400;6.770;2023-08-07T14:05:54;4.03;;;0.90;;
32613;SDS011;19031;51.400;6.770;2023-08-07T14:08:20;5.03;;;1.10;;
32613;SDS011;19031;51.400;6.770;2023-08-07T14:10:46;4.30;;;1.17;;
32613;SDS011;19031;51.400;6.770;2023-08-07T14:13:11;2.63;;;1.13;;
32613;SDS011;19031;51.400;6.770;2023-08-07T14:15:37;3.35;;;1.02;;
32613;SDS011;19031;51.400;6.770;2023-08-07T14:18:03;7.35;;;1.13;;
32613;SDS011;19031;51.400;6.770;2023-08-07T14:20:28;2.28;;;0.90;;
32613;SDS011;19031;51.400;6.770;2023-08-07T14:22:54;2.88;;;1.10;;
32613;SDS011;19031;51.400;6.770;2023-08-07T14:25:19;5.55;;;1.08;;
32613;SDS011;19031;51.400;6.770;2023-08-07T14:27:48;4.10;;;1.10;;
32613;SDS011;19031;51.400;6.770;2023-08-07T14:30:14;5.63;;;0.90;;
32613;SDS011;19031;51.400;6.770;2023-08-07T14:32:40;2.35;;;0.90;;
32613;SDS011;19031;51.400;6.770;2023-08-07T14:35:07;4.13;;;1.10;;
32613;SDS011;19031;51.400;6.770;2023-08-07T14:37:33;4.47;;;1.45;;
32613;SDS011;19031;51.400;6.770;2023-08-07T14:39:58;2.22;;;0.93;;
32613;SDS011;19031;51.400;6.770;2023-08-07T14:42:24;2.60;;;1.10;;
32613;SDS011;19031;51.400;6.770;2023-08-07T14:44:49;3.47;;;1.30;;
32613;SDS011;19031;51.400;6.770;2023-08-07T14:47:15;4.78;;;0.90;;
32613;SDS011;19031;51.400;6.770;2023-08-07T14:49:41;4.85;;;1.25;;
32613;SDS011;19031;51.400;6.770;2023-08-07T14:52:06;3.95;;;1.35;;
32613;SDS011;19031;51.400;6.770;2023-08-07T14:54:32;3.97;;;1.08;;
32613;SDS011;19031;51.400;6.770;2023-08-07T14:56:58;2.80;;;1.13;;
32613;SDS011;19031;51.400;6.770;2023-08-07T14:59:24;6.00;;;1.00;;
32613;SDS011;19031;51.400;6.770;2023-08-07T15:01:50;4.05;;;1.23;;
32613;SDS011;19031;51.400;6.770;2023-08-07T15:04:16;3.50;;;0.88;;
32613;SDS011;19031;51.400;6.770;2023-08-07T15:06:41;3.35;;;1.23;;